createdAt,value
2022-08-14T00:00:06.237Z,99852.44
2022-08-14T00:02:40.499Z,99836.00
2022-08-14T00:05:12.238Z,99838.13
2022-08-14T00:07:42.075Z,99829.88
2022-08-14T00:10:51.342Z,99832.75
2022-08-14T00:13:07.137Z,99829.72
2022-08-14T00:15:44.400Z,99827.16
2022-08-14T00:18:30.756Z,99831.28
2022-08-14T00:21:11.156Z,99814.22
2022-08-14T00:23:41.520Z,99816.75
2022-08-14T00:26:22.954Z,99816.13
2022-08-14T00:28:52.747Z,99814.31
2022-08-14T00:31:35.293Z,99812.09
2022-08-14T00:34:37.157Z,99805.84
2022-08-14T00:36:59.336Z,99803.19
2022-08-14T00:39:28.098Z,99805.13
2022-08-14T00:42:01.025Z,99798.56
2022-08-14T00:44:32.474Z,99794.22
2022-08-14T00:47:03.478Z,99798.16
2022-08-14T00:49:38.094Z,99792.75
2022-08-14T00:52:14.226Z,99786.28
2022-08-14T00:54:57.907Z,99784.81
2022-08-14T00:57:31.358Z,99778.91
2022-08-14T01:00:00.709Z,99780.81
2022-08-14T01:02:31.693Z,99783.44
2022-08-14T01:05:02.799Z,99780.81
2022-08-14T01:07:38.996Z,99779.84
2022-08-14T01:10:21.731Z,99779.97
2022-08-14T01:12:54.463Z,99770.88
2022-08-14T01:15:31.729Z,99769.91
2022-08-14T01:18:29.376Z,99766.19
2022-08-14T01:21:07.333Z,99762.19
2022-08-14T01:23:46.774Z,99761.31
2022-08-14T01:26:34.536Z,99759.66
2022-08-14T01:29:06.809Z,99752.53
2022-08-14T01:31:43.364Z,99758.22
2022-08-14T01:35:21.073Z,99756.09
2022-08-14T01:37:04.680Z,99757.06
2022-08-14T01:39:38.130Z,99745.44
2022-08-14T01:42:07.367Z,99752.94
2022-08-14T01:44:38.904Z,99747.84
2022-08-14T01:47:21.560Z,99741.09
2022-08-14T01:50:01.286Z,99736.94
2022-08-14T01:52:59.224Z,99734.28
2022-08-14T01:55:31.722Z,99739.06
2022-08-14T01:58:19.644Z,99721.50
2022-08-14T02:00:54.806Z,99727.22
2022-08-14T02:03:29.613Z,99732.41
2022-08-14T02:06:04.021Z,99725.28
2022-08-14T02:08:53.271Z,99721.72
2022-08-14T02:11:26.843Z,99715.25
2022-08-14T02:14:07.130Z,99718.47
2022-08-14T02:16:39.557Z,99703.44
2022-08-14T02:19:10.262Z,99701.34
2022-08-14T02:21:46.948Z,99697.41
2022-08-14T02:24:38.950Z,99697.00
2022-08-14T02:28:23.308Z,99684.59
2022-08-14T02:30:00.268Z,99692.16
2022-08-14T02:32:36.728Z,99680.13
2022-08-14T02:35:17.838Z,99679.16
2022-08-14T02:37:49.066Z,99672.09
2022-08-14T02:40:19.253Z,99661.38
2022-08-14T02:42:55.156Z,99655.22
2022-08-14T02:45:33.404Z,99656.09
2022-08-14T02:48:10.590Z,99637.41
2022-08-14T02:50:57.085Z,99634.09
2022-08-14T02:53:30.038Z,99632.44
2022-08-14T02:56:02.710Z,99629.41
2022-08-14T02:58:38.659Z,99628.13
2022-08-14T03:01:11.421Z,99636.81
2022-08-14T03:03:40.055Z,99636.81
2022-08-14T03:06:10.530Z,99638.72
2022-08-14T03:08:45.895Z,99643.69
2022-08-14T03:11:15.649Z,99641.56
2022-08-14T03:13:51.503Z,99646.97
2022-08-14T03:16:26.895Z,99641.22
2022-08-14T03:18:58.354Z,99642.09
2022-08-14T03:21:30.110Z,99641.44
2022-08-14T03:24:16.602Z,99647.13
2022-08-14T03:26:57.623Z,99638.34
2022-08-14T03:29:29.527Z,99637.84
2022-08-14T03:31:59.392Z,99636.44
2022-08-14T03:34:52.809Z,99630.28
2022-08-14T03:37:37.679Z,99645.59
2022-08-14T03:40:11.206Z,99646.78
2022-08-14T03:42:40.552Z,99652.94
2022-08-14T03:45:18.905Z,99649.75
2022-08-14T03:48:01.910Z,99654.41
2022-08-14T03:50:32.477Z,99652.88
2022-08-14T03:53:02.377Z,99651.41
2022-08-14T03:55:31.299Z,99657.28
2022-08-14T03:58:01.036Z,99646.84
2022-08-14T04:00:42.949Z,99635.25
2022-08-14T04:03:23.508Z,99646.75
2022-08-14T04:05:52.828Z,99638.63
2022-08-14T04:08:29.691Z,99636.94
2022-08-14T04:11:01.583Z,99636.75
2022-08-14T04:13:31.892Z,99633.22
2022-08-14T04:16:08.686Z,99629.53
2022-08-14T04:18:42.314Z,99626.81
2022-08-14T04:21:11.628Z,99624.53
2022-08-14T04:23:40.793Z,99625.06
2022-08-14T04:26:14.382Z,99611.84
2022-08-14T04:29:06.767Z,99608.91
2022-08-14T04:32:58.999Z,99613.75
2022-08-14T04:34:27.803Z,99609.94
2022-08-14T04:37:22.086Z,99604.66
2022-08-14T04:40:12.829Z,99602.84
2022-08-14T04:43:01.818Z,99606.81
2022-08-14T04:45:38.746Z,99604.47
2022-08-14T04:48:39.319Z,99603.91
2022-08-14T04:51:09.931Z,99602.22
2022-08-14T04:53:44.809Z,99613.28
2022-08-14T04:56:31.200Z,99615.16
2022-08-14T04:59:10.287Z,99608.34
2022-08-14T05:01:48.902Z,99615.63
2022-08-14T05:04:21.816Z,99608.69
2022-08-14T05:06:53.459Z,99605.31
2022-08-14T05:09:24.710Z,99611.84
2022-08-14T05:13:10.658Z,99614.00
2022-08-14T05:14:53.611Z,99617.63
2022-08-14T05:17:31.928Z,99617.59
2022-08-14T05:21:54.220Z,99619.16
2022-08-14T05:23:04.537Z,99622.56
2022-08-14T05:25:34.127Z,99623.00
2022-08-14T05:28:16.337Z,99623.94
2022-08-14T05:30:46.362Z,99617.38
2022-08-14T05:33:16.247Z,99627.72
2022-08-14T05:35:46.727Z,99623.88
2022-08-14T05:38:30.701Z,99618.78
2022-08-14T05:40:59.961Z,99615.56
2022-08-14T05:43:40.916Z,99623.19
2022-08-14T05:46:15.405Z,99612.13
2022-08-14T05:48:44.061Z,99620.97
2022-08-14T05:51:15.291Z,99614.19
2022-08-14T05:53:44.082Z,99623.53
2022-08-14T05:56:30.812Z,99615.59
2022-08-14T05:59:00.851Z,99622.00
2022-08-14T06:01:31.660Z,99614.69
2022-08-14T06:04:00.400Z,99614.50
2022-08-14T06:06:33.776Z,99610.22
2022-08-14T06:09:05.731Z,99600.81
2022-08-14T06:11:38.557Z,99608.53
2022-08-14T06:14:20.616Z,99603.31
2022-08-14T06:16:49.793Z,99603.34
2022-08-14T06:19:23.157Z,99592.69
2022-08-14T06:21:58.248Z,99593.84
2022-08-14T06:24:30.641Z,99584.34
2022-08-14T06:27:04.376Z,99592.75
2022-08-14T06:29:35.012Z,99590.56
2022-08-14T06:32:36.681Z,99592.09
2022-08-14T06:35:02.421Z,99604.50
2022-08-14T06:37:46.994Z,99598.94
2022-08-14T06:40:27.997Z,99590.38
2022-08-14T06:43:00.549Z,99597.72
2022-08-14T06:45:32.762Z,99591.88
2022-08-14T06:48:03.173Z,99600.84
2022-08-14T06:50:34.816Z,99603.50
2022-08-14T06:53:05.245Z,99602.81
2022-08-14T06:55:34.123Z,99592.72
2022-08-14T06:58:05.940Z,99596.09
2022-08-14T07:01:10.562Z,99585.13
2022-08-14T07:03:58.140Z,99575.63
2022-08-14T07:06:46.206Z,99578.53
2022-08-14T07:09:22.498Z,99582.56
2022-08-14T07:11:52.059Z,99576.66
2022-08-14T07:14:20.575Z,99564.38
2022-08-14T07:16:49.215Z,99560.28
2022-08-14T07:19:21.132Z,99547.28
2022-08-14T07:21:50.340Z,99552.25
2022-08-14T07:24:21.642Z,99544.66
2022-08-14T07:26:50.708Z,99537.31
2022-08-14T07:29:24.080Z,99527.47
2022-08-14T07:31:54.777Z,99524.44
2022-08-14T07:34:36.646Z,99525.94
2022-08-14T07:37:10.665Z,99524.25
2022-08-14T07:39:43.482Z,99519.19
2022-08-14T07:42:12.939Z,99521.47
2022-08-14T07:44:46.149Z,99522.75
2022-08-14T07:47:17.712Z,99523.34
2022-08-14T07:50:00.221Z,99516.22
2022-08-14T07:52:31.920Z,99518.72
2022-08-14T07:55:02.381Z,99517.09
2022-08-14T07:57:30.800Z,99515.13
2022-08-14T07:59:59.303Z,99519.31
2022-08-14T08:02:32.867Z,99522.22
2022-08-14T08:05:02.763Z,99528.97
2022-08-14T08:07:32.374Z,99523.59
2022-08-14T08:10:46.837Z,99536.09
2022-08-14T08:13:22.333Z,99543.34
2022-08-14T08:15:56.733Z,99544.03
2022-08-14T08:18:27.365Z,99540.84
2022-08-14T08:20:59.515Z,99548.16
2022-08-14T08:23:39.963Z,99551.06
2022-08-14T08:26:10.784Z,99547.41
2022-08-14T08:28:43.657Z,99539.69
2022-08-14T08:31:13.337Z,99535.97
2022-08-14T08:33:43.608Z,99532.88
2022-08-14T08:36:18.707Z,99544.06
2022-08-14T08:39:16.369Z,99531.25
2022-08-14T08:41:45.145Z,99537.59
2022-08-14T08:44:17.290Z,99537.25
2022-08-14T08:47:06.097Z,99535.28
2022-08-14T08:49:43.147Z,99524.75
2022-08-14T08:52:25.092Z,99524.22
2022-08-14T08:55:00.750Z,99528.25
2022-08-14T08:57:38.068Z,99516.09
2022-08-14T09:00:25.477Z,99516.25
2022-08-14T09:02:57.699Z,99506.97
2022-08-14T09:05:27.449Z,99507.91
2022-08-14T09:07:57.019Z,99511.31
2022-08-14T09:10:27.227Z,99503.19
2022-08-14T09:12:57.771Z,99511.38
2022-08-14T09:15:36.555Z,99505.81
2022-08-14T09:18:05.597Z,99506.75
2022-08-14T09:20:34.437Z,99515.13
2022-08-14T09:23:06.019Z,99509.41
2022-08-14T09:26:00.944Z,99503.09
2022-08-14T09:28:26.220Z,99502.41
2022-08-14T09:30:57.899Z,99487.78
2022-08-14T09:34:09.430Z,99489.22
2022-08-14T09:37:15.511Z,99483.31
2022-08-14T09:39:58.786Z,99488.97
2022-08-14T09:43:01.799Z,99483.78
2022-08-14T09:45:40.029Z,99472.47
2022-08-14T09:48:29.966Z,99477.47
2022-08-14T09:54:19.525Z,99464.13
2022-08-14T09:56:31.749Z,99460.31
2022-08-14T09:59:15.341Z,99459.72
2022-08-14T10:01:52.886Z,99458.50
2022-08-14T10:04:33.780Z,99451.69
2022-08-14T10:07:03.805Z,99438.59
2022-08-14T10:09:33.609Z,99443.97
2022-08-14T10:12:05.052Z,99440.94
2022-08-14T10:14:37.158Z,99435.59
2022-08-14T10:17:08.830Z,99443.59
2022-08-14T10:19:48.923Z,99426.47
2022-08-14T10:23:11.982Z,99426.00
2022-08-14T10:25:14.268Z,99420.19
2022-08-14T10:27:46.463Z,99429.00
2022-08-14T10:30:22.478Z,99423.72
2022-08-14T10:32:55.619Z,99420.28
2022-08-14T10:35:31.124Z,99423.97
2022-08-14T10:38:07.377Z,99417.16
2022-08-14T10:40:37.605Z,99427.22
2022-08-14T10:43:23.389Z,99416.16
2022-08-14T10:46:03.937Z,99412.25
2022-08-14T10:49:00.917Z,99410.63
2022-08-14T10:51:36.103Z,99397.09
2022-08-14T10:54:35.027Z,99394.88
2022-08-14T10:56:59.719Z,99393.34
2022-08-14T10:59:30.619Z,99396.38
2022-08-14T11:02:00.403Z,99379.84
2022-08-14T11:04:31.084Z,99384.75
2022-08-14T11:07:00.383Z,99390.28
2022-08-14T11:09:32.028Z,99386.31
2022-08-14T11:12:34.094Z,99390.13
2022-08-14T11:14:59.869Z,99385.91
2022-08-14T11:17:33.094Z,99375.16
2022-08-14T11:20:05.611Z,99377.22
2022-08-14T11:23:03.524Z,99369.38
2022-08-14T11:25:25.683Z,99371.63
2022-08-14T11:28:11.005Z,99365.25
2022-08-14T11:30:50.811Z,99360.56
2022-08-14T11:33:24.683Z,99349.47
2022-08-14T11:35:59.611Z,99355.84
2022-08-14T11:38:29.697Z,99346.75
2022-08-14T11:41:00.434Z,99344.94
2022-08-14T11:43:30.546Z,99330.59
2022-08-14T11:46:03.859Z,99333.72
2022-08-14T11:49:02.165Z,99326.78
2022-08-14T11:51:30.751Z,99309.66
2022-08-14T11:54:08.195Z,99315.03
2022-08-14T11:56:37.676Z,99310.41
2022-08-14T11:59:10.294Z,99294.63
2022-08-14T12:01:41.154Z,99296.97
2022-08-14T12:04:31.727Z,99297.88
2022-08-14T12:07:02.788Z,99302.91
2022-08-14T12:09:34.944Z,99300.25
2022-08-14T12:12:16.138Z,99300.66
2022-08-14T12:15:03.474Z,99297.22
2022-08-14T12:17:47.460Z,99297.56
2022-08-14T12:20:29.944Z,99293.34
2022-08-14T12:23:05.170Z,99282.06
2022-08-14T12:25:36.281Z,99282.84
2022-08-14T12:28:27.244Z,99279.25
2022-08-14T12:31:13.639Z,99279.66
2022-08-14T12:33:47.024Z,99284.50
2022-08-14T12:36:23.128Z,99281.91
2022-08-14T12:38:55.509Z,99273.75
2022-08-14T12:41:34.489Z,99274.25
2022-08-14T12:44:08.406Z,99262.56
2022-08-14T12:46:40.655Z,99256.94
2022-08-14T12:49:16.141Z,99252.31
2022-08-14T12:51:45.610Z,99247.56
2022-08-14T12:54:27.988Z,99244.72
2022-08-14T12:57:08.101Z,99242.53
2022-08-14T12:59:42.699Z,99237.94
2022-08-14T13:02:26.585Z,99229.03
2022-08-14T13:04:58.009Z,99222.72
2022-08-14T13:07:32.534Z,99219.66
2022-08-14T13:10:45.702Z,99207.81
2022-08-14T13:13:13.247Z,99202.00
2022-08-14T13:15:45.315Z,99207.44
2022-08-14T13:18:17.106Z,99211.59
2022-08-14T13:20:48.146Z,99211.59
2022-08-14T13:23:30.680Z,99194.34
2022-08-14T13:26:03.095Z,99201.75
2022-08-14T13:28:33.851Z,99179.59
2022-08-14T13:31:09.121Z,99177.63
2022-08-14T13:33:41.276Z,99170.25
2022-08-14T13:36:23.654Z,99177.38
2022-08-14T13:38:56.200Z,99166.19
2022-08-14T13:41:34.680Z,99175.03
2022-08-14T13:44:07.897Z,99163.50
2022-08-14T13:46:44.433Z,99160.38
2022-08-14T13:49:14.921Z,99155.13
2022-08-14T13:51:50.546Z,99147.78
2022-08-14T13:54:23.164Z,99147.78
2022-08-14T13:56:53.207Z,99145.84
2022-08-14T13:59:38.231Z,99141.47
2022-08-14T14:02:09.313Z,99143.88
2022-08-14T14:04:42.711Z,99144.78
2022-08-14T14:07:17.606Z,99133.19
2022-08-14T14:09:52.618Z,99138.91
2022-08-14T14:12:38.101Z,99130.66
2022-08-14T14:15:13.745Z,99132.06
2022-08-14T14:17:46.436Z,99135.00
2022-08-14T14:20:35.310Z,99135.94
2022-08-14T14:23:11.838Z,99126.31
2022-08-14T14:25:48.061Z,99119.78
2022-08-14T14:28:24.966Z,99111.41
2022-08-14T14:30:57.147Z,99109.25
2022-08-14T14:33:47.353Z,99104.50
2022-08-14T14:36:21.555Z,99113.97
2022-08-14T14:38:56.035Z,99092.50
2022-08-14T14:41:38.126Z,99096.69
2022-08-14T14:44:13.396Z,99093.03
2022-08-14T14:46:51.030Z,99101.72
2022-08-14T14:49:25.945Z,99102.81
2022-08-14T14:52:23.482Z,99096.78
2022-08-14T14:54:58.542Z,99094.22
2022-08-14T14:57:34.631Z,99094.16
2022-08-14T15:00:12.720Z,99086.47
2022-08-14T15:02:45.370Z,99093.06
2022-08-14T15:05:17.259Z,99091.78
2022-08-14T15:07:49.830Z,99083.25
2022-08-14T15:10:27.638Z,99086.31
2022-08-14T15:13:03.641Z,99077.97
2022-08-14T15:15:37.339Z,99072.75
2022-08-14T15:18:36.193Z,99074.22
2022-08-14T15:20:58.099Z,99072.19
2022-08-14T15:23:32.500Z,99064.25
2022-08-14T15:26:27.702Z,99068.53
2022-08-14T15:29:04.904Z,99060.03
2022-08-14T15:31:37.113Z,99060.78
2022-08-14T15:34:46.168Z,99065.91
2022-08-14T15:37:03.151Z,99069.31
2022-08-14T15:39:34.065Z,99063.03
2022-08-14T15:42:14.892Z,99064.56
2022-08-14T15:44:58.033Z,99056.63
2022-08-14T15:47:34.920Z,99056.09
2022-08-14T15:50:09.610Z,99049.25
2022-08-14T15:52:42.981Z,99050.03
2022-08-14T15:55:16.353Z,99046.59
2022-08-14T15:58:01.358Z,99043.53
2022-08-14T16:00:49.901Z,99047.88
2022-08-14T16:03:27.298Z,99044.22
2022-08-14T16:06:11.194Z,99041.84
2022-08-14T16:08:45.006Z,99040.19
2022-08-14T16:11:16.113Z,99048.88
2022-08-14T16:13:47.804Z,99039.88
2022-08-14T16:16:48.005Z,99043.13
2022-08-14T16:19:12.470Z,99032.81
2022-08-14T16:22:02.648Z,99031.13
2022-08-14T16:24:34.727Z,99036.00
2022-08-14T16:27:05.886Z,99036.84
2022-08-14T16:29:39.875Z,99041.69
2022-08-14T16:32:33.121Z,99034.31
2022-08-14T16:35:03.806Z,99036.66
2022-08-14T16:37:34.133Z,99029.53
2022-08-14T16:40:05.341Z,99028.59
2022-08-14T16:43:03.141Z,99020.91
2022-08-14T16:45:32.169Z,99019.66
2022-08-14T16:48:02.464Z,99018.88
2022-08-14T16:50:40.417Z,99017.31
2022-08-14T16:53:17.160Z,99010.88
2022-08-14T16:55:53.615Z,99008.63
2022-08-14T16:58:27.211Z,99012.63
2022-08-14T17:01:24.685Z,99011.56
2022-08-14T17:04:04.703Z,99008.41
2022-08-14T17:06:48.646Z,98998.16
2022-08-14T17:09:31.821Z,98995.97
2022-08-14T17:12:07.549Z,98997.34
2022-08-14T17:15:01.630Z,98999.31
2022-08-14T17:17:52.129Z,98986.81
2022-08-14T17:20:53.870Z,98998.97
2022-08-14T17:23:17.836Z,98993.06
2022-08-14T17:25:50.950Z,98998.19
2022-08-14T17:28:51.662Z,98982.13
2022-08-14T17:31:10.318Z,98992.34
2022-08-14T17:33:44.537Z,98987.56
2022-08-14T17:36:24.491Z,98989.69
2022-08-14T17:39:06.443Z,98983.38
2022-08-14T17:41:43.822Z,98978.44
2022-08-14T17:44:34.002Z,98983.81
2022-08-14T17:47:10.757Z,98990.69
2022-08-14T17:49:52.233Z,98988.69
2022-08-14T17:52:34.267Z,98992.38
2022-08-14T17:55:09.863Z,98989.84
2022-08-14T17:57:42.650Z,98999.88
2022-08-14T18:00:16.551Z,98985.66
2022-08-14T18:02:50.756Z,98994.34
2022-08-14T18:05:23.331Z,98995.66
2022-08-14T18:08:32.845Z,98984.16
2022-08-14T18:11:02.189Z,98984.16
2022-08-14T18:13:52.002Z,98989.84
2022-08-14T18:16:22.376Z,98986.50
2022-08-14T18:18:52.000Z,98995.19
2022-08-14T18:21:39.688Z,98986.13
2022-08-14T18:24:20.146Z,98988.31
2022-08-14T18:27:08.726Z,98991.66
2022-08-14T18:29:55.316Z,98987.13
2022-08-14T18:32:47.406Z,98984.13
2022-08-14T18:35:46.131Z,98990.47
2022-08-14T18:38:25.875Z,98991.41
2022-08-14T18:41:36.099Z,98991.13
2022-08-14T18:44:10.368Z,98989.44
2022-08-14T18:47:22.790Z,98998.44
2022-08-14T18:50:26.988Z,98993.41
2022-08-14T18:52:54.714Z,98996.88
2022-08-14T18:55:53.708Z,98994.91
2022-08-14T18:58:48.386Z,99000.88
2022-08-14T19:01:29.807Z,98994.88
2022-08-14T19:04:01.556Z,99004.22
2022-08-14T19:06:56.321Z,99004.72
2022-08-14T19:09:58.249Z,99003.72
2022-08-14T19:13:04.880Z,99002.06
2022-08-14T19:15:36.612Z,99007.72
2022-08-14T19:18:27.999Z,99002.69
2022-08-14T19:21:00.524Z,99005.69
2022-08-14T19:23:43.944Z,99008.66
2022-08-14T19:26:35.405Z,98999.63
2022-08-14T19:29:38.237Z,99002.63
2022-08-14T19:32:40.176Z,99002.13
2022-08-14T19:35:49.569Z,99001.59
2022-08-14T19:38:54.745Z,98999.25
2022-08-14T19:41:34.127Z,99004.75
2022-08-14T19:44:14.183Z,99014.88
2022-08-14T19:46:59.701Z,99010.56
2022-08-14T19:50:25.094Z,99016.91
2022-08-14T19:52:37.018Z,99009.34
2022-08-14T19:55:16.929Z,99019.03
2022-08-14T19:57:52.434Z,99016.50
2022-08-14T20:00:30.162Z,99023.47
2022-08-14T20:03:09.910Z,99018.75
2022-08-14T20:05:42.912Z,99015.41
2022-08-14T20:09:06.468Z,99015.72
2022-08-14T20:11:20.519Z,99016.03
2022-08-14T20:14:10.229Z,99014.38
2022-08-14T20:16:41.712Z,99010.38
2022-08-14T20:19:19.545Z,99010.66
2022-08-14T20:22:00.726Z,99018.97
2022-08-14T20:24:44.315Z,99006.97
2022-08-14T20:27:33.251Z,99010.25
2022-08-14T20:30:34.009Z,99012.69
2022-08-14T20:33:08.051Z,99010.19
2022-08-14T20:35:47.560Z,99004.34
2022-08-14T20:38:28.979Z,99008.16
2022-08-14T20:41:05.794Z,99003.13
2022-08-14T20:43:55.800Z,99013.38
2022-08-14T20:46:31.210Z,99004.72
2022-08-14T20:49:03.178Z,99003.34
2022-08-14T20:51:43.621Z,98999.16
2022-08-14T20:54:34.219Z,99005.94
2022-08-14T20:57:12.091Z,98999.25
2022-08-14T20:59:44.762Z,98998.84
2022-08-14T21:02:38.692Z,99002.22
2022-08-14T21:05:33.510Z,99004.38
2022-08-14T21:08:09.676Z,98996.00
2022-08-14T21:10:54.947Z,98995.06
2022-08-14T21:14:18.950Z,98990.88
2022-08-14T21:16:25.759Z,98996.50
2022-08-14T21:19:05.100Z,98997.09
2022-08-14T21:21:41.261Z,98992.91
2022-08-14T21:24:38.791Z,98989.84
2022-08-14T21:27:12.847Z,98992.34
2022-08-14T21:29:55.984Z,98992.66
2022-08-14T21:32:46.855Z,98985.66
2022-08-14T21:35:22.757Z,98988.47
2022-08-14T21:37:53.846Z,98988.63
2022-08-14T21:40:40.283Z,98983.75
2022-08-14T21:43:14.928Z,98989.38
2022-08-14T21:45:53.516Z,98981.84
2022-08-14T21:48:25.299Z,98980.16
2022-08-14T21:51:01.170Z,98978.50
2022-08-14T21:53:58.200Z,98979.19
2022-08-14T21:56:38.643Z,98989.44
2022-08-14T21:59:17.773Z,98987.66
2022-08-14T22:02:00.577Z,98980.25
2022-08-14T22:04:39.965Z,98985.59
2022-08-14T22:07:17.270Z,98984.44
2022-08-14T22:09:55.184Z,98983.91
2022-08-14T22:12:45.459Z,98989.94
2022-08-14T22:15:17.903Z,98992.00
2022-08-14T22:17:52.346Z,98996.19
2022-08-14T22:20:25.590Z,99006.00
2022-08-14T22:22:56.207Z,99002.13
2022-08-14T22:25:33.551Z,99004.66
2022-08-14T22:28:05.732Z,99005.22
2022-08-14T22:30:35.814Z,98995.16
2022-08-14T22:33:05.885Z,98983.69
2022-08-14T22:35:38.890Z,98989.59
2022-08-14T22:38:35.834Z,98985.41
2022-08-14T22:41:09.665Z,98980.38
2022-08-14T22:43:45.780Z,98978.53
2022-08-14T22:46:20.445Z,98982.03
2022-08-14T22:48:51.089Z,98984.03
2022-08-14T22:51:23.068Z,98981.50
2022-08-14T22:53:55.618Z,98978.00
2022-08-14T22:56:30.047Z,98979.13
2022-08-14T22:59:02.205Z,98984.44
2022-08-14T23:01:55.837Z,98984.84
2022-08-14T23:04:35.212Z,98980.91
2022-08-14T23:07:14.405Z,98984.34
2022-08-14T23:09:56.285Z,98983.38
2022-08-14T23:12:29.699Z,98989.81
2022-08-14T23:15:00.410Z,98984.09
2022-08-14T23:17:39.178Z,99002.16
2022-08-14T23:20:18.765Z,98996.13
2022-08-14T23:22:51.845Z,98986.88
2022-08-14T23:25:45.790Z,98994.72
2022-08-14T23:28:33.375Z,98999.22
2022-08-14T23:31:14.054Z,98995.06
2022-08-14T23:33:52.036Z,98995.88
2022-08-14T23:36:32.336Z,98987.06
2022-08-14T23:39:12.385Z,98977.31
2022-08-14T23:41:53.859Z,98970.97
2022-08-14T23:44:24.477Z,98972.69
2022-08-14T23:46:56.962Z,98960.63
2022-08-14T23:49:59.995Z,98957.84
2022-08-14T23:52:56.111Z,98964.28
2022-08-14T23:55:11.063Z,98953.63
2022-08-14T23:57:44.212Z,98953.09
